createdAt,value
2019-02-24T00:00:07.948Z,1.83
2019-02-24T00:02:37.951Z,2.63
2019-02-24T00:05:04.847Z,3.00
2019-02-24T00:07:31.565Z,2.47
2019-02-24T00:09:58.355Z,3.20
2019-02-24T00:12:25.044Z,3.33
2019-02-24T00:14:51.955Z,3.70
2019-02-24T00:17:18.703Z,2.37
2019-02-24T00:19:45.494Z,1.97
2019-02-24T00:22:12.206Z,2.87
2019-02-24T00:24:38.890Z,2.47
2019-02-24T00:27:05.582Z,3.20
2019-02-24T00:29:32.248Z,2.90
2019-02-24T00:31:59.111Z,2.77
2019-02-24T00:34:25.925Z,2.53
2019-02-24T00:36:52.632Z,2.50
2019-02-24T00:39:19.477Z,3.17
2019-02-24T00:41:46.161Z,2.90
2019-02-24T00:44:12.871Z,2.53
2019-02-24T00:46:39.582Z,2.67
2019-02-24T00:49:06.358Z,2.93
2019-02-24T00:51:33.059Z,1.87
2019-02-24T00:53:59.753Z,2.87
2019-02-24T00:56:29.370Z,1.70
2019-02-24T00:58:56.171Z,2.70
2019-02-24T01:01:22.974Z,3.50
2019-02-24T01:03:49.657Z,2.73
2019-02-24T01:06:16.304Z,1.97
2019-02-24T01:08:43.356Z,2.40
2019-02-24T01:11:10.035Z,2.83
2019-02-24T01:13:36.834Z,2.37
2019-02-24T01:16:03.611Z,1.80
2019-02-24T01:18:30.379Z,2.53
2019-02-24T01:20:57.079Z,2.53
2019-02-24T01:23:23.862Z,2.30
2019-02-24T01:25:50.664Z,2.10
2019-02-24T01:28:25.018Z,2.53
2019-02-24T01:30:46.055Z,2.53
2019-02-24T01:33:12.854Z,2.13
2019-02-24T01:35:39.706Z,2.37
2019-02-24T01:38:06.366Z,1.70
2019-02-24T01:40:33.180Z,1.33
2019-02-24T01:42:59.983Z,2.07
2019-02-24T01:45:26.717Z,2.20
2019-02-24T01:47:53.429Z,1.63
2019-02-24T01:50:20.283Z,1.70
2019-02-24T01:52:46.971Z,2.00
2019-02-24T01:55:13.740Z,1.87
2019-02-24T01:57:40.565Z,3.43
2019-02-24T02:00:08.666Z,2.30
2019-02-24T02:02:35.328Z,2.23
2019-02-24T02:05:02.134Z,2.20
2019-02-24T02:07:28.894Z,2.27
2019-02-24T02:09:55.635Z,1.70
2019-02-24T02:12:22.420Z,2.00
2019-02-24T02:14:49.262Z,2.67
2019-02-24T02:17:15.957Z,1.83
2019-02-24T02:19:42.670Z,2.47
2019-02-24T02:22:09.845Z,1.70
2019-02-24T02:24:36.543Z,2.07
2019-02-24T02:27:03.360Z,2.47
2019-02-24T02:29:30.050Z,1.70
2019-02-24T02:31:56.827Z,2.33
2019-02-24T02:34:23.506Z,2.30
2019-02-24T02:36:50.131Z,2.00
2019-02-24T02:39:17.061Z,1.40
2019-02-24T02:41:43.937Z,1.90
2019-02-24T02:44:10.569Z,2.30
2019-02-24T02:46:37.295Z,2.57
2019-02-24T02:49:04.650Z,1.30
2019-02-24T02:51:31.385Z,1.67
2019-02-24T02:53:58.096Z,2.33
2019-02-24T02:56:24.809Z,1.63
2019-02-24T02:58:54.313Z,2.37
2019-02-24T03:01:20.338Z,1.70
2019-02-24T03:03:47.104Z,2.17
2019-02-24T03:06:42.416Z,1.73
2019-02-24T03:09:10.407Z,1.67
2019-02-24T03:11:37.175Z,2.50
2019-02-24T03:14:03.915Z,2.40
2019-02-24T03:16:30.655Z,2.20
2019-02-24T03:18:57.484Z,2.00
2019-02-24T03:21:24.302Z,1.83
2019-02-24T03:23:51.008Z,1.90
2019-02-24T03:26:17.811Z,2.47
2019-02-24T03:28:44.588Z,2.30
2019-02-24T03:31:11.257Z,1.73
2019-02-24T03:33:38.083Z,1.67
2019-02-24T03:36:04.843Z,2.03
2019-02-24T03:38:31.557Z,1.43
2019-02-24T03:40:58.278Z,2.47
2019-02-24T03:43:25.118Z,1.43
2019-02-24T03:45:51.813Z,2.00
2019-02-24T03:48:18.692Z,1.87
2019-02-24T03:50:45.388Z,2.30
2019-02-24T03:53:12.515Z,1.30
2019-02-24T03:55:39.435Z,1.40
2019-02-24T03:58:06.132Z,2.00
2019-02-24T04:00:32.955Z,1.50
2019-02-24T04:02:59.635Z,2.10
2019-02-24T04:05:26.549Z,1.53
2019-02-24T04:07:53.344Z,1.87
2019-02-24T04:10:20.093Z,1.77
2019-02-24T04:12:46.840Z,2.00
2019-02-24T04:15:13.634Z,1.90
2019-02-24T04:17:40.359Z,1.20
2019-02-24T04:20:07.123Z,1.63
2019-02-24T04:22:34.159Z,1.37
2019-02-24T04:25:01.026Z,1.40
2019-02-24T04:27:28.959Z,2.13
2019-02-24T04:29:55.799Z,1.00
2019-02-24T04:32:22.512Z,1.23
2019-02-24T04:34:49.247Z,1.33
2019-02-24T04:37:16.030Z,1.47
2019-02-24T04:39:42.820Z,1.53
2019-02-24T04:42:09.745Z,1.77
2019-02-24T04:44:36.704Z,1.30
2019-02-24T04:47:03.605Z,1.03
2019-02-24T04:49:30.410Z,1.23
2019-02-24T04:51:57.144Z,1.50
2019-02-24T04:54:23.911Z,1.20
2019-02-24T04:56:50.628Z,2.07
2019-02-24T04:59:17.340Z,1.57
2019-02-24T05:01:44.162Z,2.23
2019-02-24T05:04:10.969Z,1.47
2019-02-24T05:06:37.665Z,1.60
2019-02-24T05:09:04.602Z,1.27
2019-02-24T05:11:31.298Z,1.60
2019-02-24T05:13:58.007Z,1.10
2019-02-24T05:16:24.773Z,1.87
2019-02-24T05:18:51.466Z,2.00
2019-02-24T05:21:18.481Z,1.67
2019-02-24T05:23:45.069Z,1.53
2019-02-24T05:26:11.985Z,1.83
2019-02-24T05:28:38.747Z,1.70
2019-02-24T05:31:05.549Z,1.57
2019-02-24T05:33:32.349Z,2.10
2019-02-24T05:35:59.116Z,1.03
2019-02-24T05:38:25.841Z,1.97
2019-02-24T05:40:52.552Z,1.50
2019-02-24T05:43:19.410Z,1.57
2019-02-24T05:45:46.200Z,1.47
2019-02-24T05:48:12.894Z,1.40
2019-02-24T05:50:39.646Z,1.30
2019-02-24T05:53:06.457Z,1.13
2019-02-24T05:55:33.239Z,1.73
2019-02-24T05:57:59.927Z,1.07
2019-02-24T06:00:26.712Z,1.03
2019-02-24T06:02:53.378Z,1.37
2019-02-24T06:05:20.236Z,1.10
2019-02-24T06:07:47.111Z,2.10
2019-02-24T06:10:14.348Z,2.10
2019-02-24T06:12:41.377Z,1.70
2019-02-24T06:15:08.249Z,1.40
2019-02-24T06:17:35.096Z,1.10
2019-02-24T06:20:01.931Z,1.13
2019-02-24T06:22:28.743Z,1.63
2019-02-24T06:24:55.454Z,1.33
2019-02-24T06:27:22.174Z,1.00
2019-02-24T06:29:49.327Z,1.67
2019-02-24T06:32:16.005Z,2.23
2019-02-24T06:34:42.760Z,1.50
2019-02-24T06:37:09.497Z,1.50
2019-02-24T06:39:36.169Z,0.97
2019-02-24T06:42:02.860Z,2.33
2019-02-24T06:44:29.564Z,1.50
2019-02-24T06:46:58.277Z,1.27
2019-02-24T06:49:25.206Z,2.07
2019-02-24T06:51:51.916Z,1.10
2019-02-24T06:54:18.851Z,1.63
2019-02-24T06:56:45.647Z,1.90
2019-02-24T06:59:12.450Z,1.70
2019-02-24T07:01:40.422Z,1.40
2019-02-24T07:04:07.316Z,1.40
2019-02-24T07:06:34.046Z,1.77
2019-02-24T07:09:01.291Z,1.90
2019-02-24T07:11:27.994Z,1.73
2019-02-24T07:13:54.727Z,2.13
2019-02-24T07:16:21.522Z,1.60
2019-02-24T07:18:48.313Z,2.23
2019-02-24T07:21:15.090Z,2.10
2019-02-24T07:23:42.387Z,1.83
2019-02-24T07:26:09.221Z,1.30
2019-02-24T07:28:35.991Z,2.40
2019-02-24T07:31:02.835Z,1.87
2019-02-24T07:33:29.611Z,1.80
2019-02-24T07:35:56.335Z,1.83
2019-02-24T07:38:22.999Z,2.53
2019-02-24T07:40:49.716Z,1.77
2019-02-24T07:43:16.408Z,2.27
2019-02-24T07:45:43.108Z,1.53
2019-02-24T07:48:09.833Z,1.80
2019-02-24T07:50:36.505Z,1.77
2019-02-24T07:53:03.328Z,1.70
2019-02-24T07:55:30.035Z,2.57
2019-02-24T07:57:56.795Z,2.00
2019-02-24T08:00:31.690Z,2.30
2019-02-24T08:02:52.214Z,2.07
2019-02-24T08:05:18.835Z,2.00
2019-02-24T08:07:45.630Z,1.97
2019-02-24T08:10:12.477Z,2.10
2019-02-24T08:12:39.367Z,1.47
2019-02-24T08:15:06.404Z,2.30
2019-02-24T08:17:33.115Z,2.20
2019-02-24T08:19:59.895Z,2.13
2019-02-24T08:22:26.567Z,1.77
2019-02-24T08:24:53.291Z,1.87
2019-02-24T08:27:20.004Z,2.40
2019-02-24T08:29:46.981Z,2.30
2019-02-24T08:32:13.749Z,2.63
2019-02-24T08:34:40.473Z,2.20
2019-02-24T08:37:07.117Z,2.40
2019-02-24T08:39:33.766Z,1.90
2019-02-24T08:42:00.392Z,2.30
2019-02-24T08:44:27.102Z,2.43
2019-02-24T08:46:54.029Z,2.30
2019-02-24T08:49:20.695Z,2.43
2019-02-24T08:51:47.544Z,2.00
2019-02-24T08:54:14.341Z,1.47
2019-02-24T08:56:41.005Z,2.20
2019-02-24T08:59:07.699Z,2.73
2019-02-24T09:01:34.474Z,2.07
2019-02-24T09:04:01.067Z,2.40
2019-02-24T09:06:27.734Z,2.80
2019-02-24T09:08:54.558Z,2.10
2019-02-24T09:11:21.218Z,2.50
2019-02-24T09:13:48.073Z,3.10
2019-02-24T09:16:14.839Z,2.17
2019-02-24T09:18:41.715Z,3.57
2019-02-24T09:21:08.432Z,3.10
2019-02-24T09:23:35.187Z,2.20
2019-02-24T09:26:01.986Z,2.83
2019-02-24T09:28:28.832Z,2.50
2019-02-24T09:31:00.772Z,2.37
2019-02-24T09:33:24.538Z,2.40
2019-02-24T09:35:51.815Z,1.83
2019-02-24T09:38:19.660Z,2.23
2019-02-24T09:40:46.431Z,1.83
2019-02-24T09:43:13.126Z,2.40
2019-02-24T09:45:39.929Z,2.77
2019-02-24T09:48:06.617Z,2.13
2019-02-24T09:50:34.444Z,2.07
2019-02-24T09:53:01.156Z,2.27
2019-02-24T09:55:27.882Z,2.23
2019-02-24T09:57:54.768Z,3.30
2019-02-24T10:00:22.106Z,2.37
2019-02-24T10:02:48.970Z,2.53
2019-02-24T10:05:15.696Z,3.67
2019-02-24T10:07:43.662Z,2.90
2019-02-24T10:10:10.613Z,2.73
2019-02-24T10:12:37.297Z,2.83
2019-02-24T10:15:04.226Z,3.27
2019-02-24T10:17:32.916Z,2.40
2019-02-24T10:19:59.670Z,2.20
2019-02-24T10:22:26.498Z,3.20
2019-02-24T10:24:59.110Z,2.47
2019-02-24T10:27:25.797Z,3.13
2019-02-24T10:29:52.621Z,2.30
2019-02-24T10:32:19.417Z,2.10
2019-02-24T10:34:46.201Z,2.70
2019-02-24T10:37:13.068Z,2.43
2019-02-24T10:39:39.771Z,2.20
2019-02-24T10:42:06.542Z,2.17
2019-02-24T10:44:33.274Z,1.90
2019-02-24T10:47:02.143Z,2.07
2019-02-24T10:49:28.900Z,1.80
2019-02-24T10:51:55.904Z,2.10
2019-02-24T10:54:22.704Z,1.40
2019-02-24T10:56:49.574Z,2.20
2019-02-24T10:59:17.000Z,2.13
2019-02-24T11:01:44.722Z,1.70
2019-02-24T11:04:11.450Z,1.50
2019-02-24T11:06:39.196Z,1.53
2019-02-24T11:09:06.219Z,1.90
2019-02-24T11:11:40.922Z,1.80
2019-02-24T11:14:07.676Z,2.10
2019-02-24T11:16:34.390Z,2.10
2019-02-24T11:19:01.268Z,2.27
2019-02-24T11:21:28.056Z,1.87
2019-02-24T11:23:55.228Z,2.37
2019-02-24T11:26:22.050Z,2.10
2019-02-24T11:28:49.023Z,2.00
2019-02-24T11:31:15.892Z,2.27
2019-02-24T11:33:42.743Z,2.53
2019-02-24T11:36:09.567Z,1.87
2019-02-24T11:38:36.323Z,2.30
2019-02-24T11:41:03.130Z,2.17
2019-02-24T11:43:29.828Z,2.33
2019-02-24T11:45:57.086Z,2.40
2019-02-24T11:48:25.531Z,2.23
2019-02-24T11:50:52.653Z,2.40
2019-02-24T11:53:19.541Z,1.80
2019-02-24T11:56:06.366Z,1.60
2019-02-24T11:58:33.307Z,2.10
2019-02-24T12:01:00.742Z,2.40
2019-02-24T12:03:27.857Z,2.27
2019-02-24T12:05:55.270Z,2.10
2019-02-24T12:08:22.541Z,2.17
2019-02-24T12:10:49.854Z,1.77
2019-02-24T12:13:18.786Z,2.37
2019-02-24T12:15:46.058Z,2.37
2019-02-24T12:18:13.106Z,2.27
2019-02-24T12:20:40.064Z,2.20
2019-02-24T12:23:07.527Z,2.20
2019-02-24T12:25:37.132Z,2.47
2019-02-24T12:28:04.106Z,2.50
2019-02-24T12:30:31.342Z,2.03
2019-02-24T12:32:58.564Z,2.30
2019-02-24T12:35:25.527Z,2.00
2019-02-24T12:37:52.898Z,1.77
2019-02-24T12:40:19.962Z,2.47
2019-02-24T12:42:46.996Z,2.67
2019-02-24T12:45:13.937Z,2.07
2019-02-24T12:47:40.904Z,2.33
2019-02-24T12:50:08.946Z,2.00
2019-02-24T12:52:35.935Z,3.23
2019-02-24T12:55:03.069Z,2.00
2019-02-24T12:57:38.866Z,2.37
2019-02-24T13:00:10.204Z,2.00
2019-02-24T13:02:37.297Z,1.90
2019-02-24T13:05:04.480Z,1.70
2019-02-24T13:07:31.648Z,1.73
2019-02-24T13:09:59.128Z,2.70
2019-02-24T13:12:26.201Z,2.73
2019-02-24T13:14:53.278Z,2.20
2019-02-24T13:17:20.265Z,2.47
2019-02-24T13:19:47.216Z,2.30
2019-02-24T13:22:14.260Z,2.43
2019-02-24T13:24:41.433Z,2.07
2019-02-24T13:27:08.620Z,2.37
2019-02-24T13:29:35.638Z,2.03
2019-02-24T13:32:02.595Z,2.30
2019-02-24T13:34:30.789Z,2.80
2019-02-24T13:36:58.193Z,2.40
2019-02-24T13:39:25.216Z,2.10
2019-02-24T13:41:52.319Z,2.27
2019-02-24T13:44:19.486Z,2.43
2019-02-24T13:46:46.413Z,2.57
2019-02-24T13:49:13.506Z,2.40
2019-02-24T13:51:40.376Z,2.10
2019-02-24T13:54:08.092Z,2.90
2019-02-24T13:56:34.774Z,2.50
2019-02-24T13:59:01.575Z,2.70
2019-02-24T14:01:28.488Z,2.00
2019-02-24T14:03:55.283Z,2.70
2019-02-24T14:06:22.158Z,2.10
2019-02-24T14:08:48.860Z,2.80
2019-02-24T14:11:15.567Z,2.57
2019-02-24T14:13:42.246Z,1.90
2019-02-24T14:16:08.896Z,1.90
2019-02-24T14:18:35.723Z,2.40
2019-02-24T14:21:02.528Z,2.70
2019-02-24T14:23:29.398Z,3.00
2019-02-24T14:25:56.118Z,2.80
2019-02-24T14:28:23.112Z,2.37
2019-02-24T14:30:49.791Z,2.20
2019-02-24T14:33:16.471Z,2.90
2019-02-24T14:35:43.141Z,2.57
2019-02-24T14:40:37.701Z,3.20
2019-02-24T14:43:04.420Z,2.43
2019-02-24T14:45:31.207Z,3.07
2019-02-24T14:47:57.917Z,3.23
2019-02-24T14:50:24.646Z,2.13
2019-02-24T14:52:51.475Z,2.60
2019-02-24T14:55:18.256Z,2.20
2019-02-24T14:57:44.950Z,2.40
2019-02-24T15:00:12.132Z,3.50
2019-02-24T15:02:42.398Z,2.97
2019-02-24T15:05:08.058Z,2.60
2019-02-24T15:07:34.751Z,2.50
2019-02-24T15:10:01.442Z,2.93
2019-02-24T15:12:28.120Z,2.43
2019-02-24T15:14:54.900Z,2.50
2019-02-24T15:17:21.742Z,3.20
2019-02-24T15:19:48.526Z,2.40
2019-02-24T15:22:15.396Z,2.97
2019-02-24T15:24:42.192Z,2.53
2019-02-24T15:27:09.021Z,4.20
2019-02-24T15:29:35.889Z,2.83
2019-02-24T15:32:02.630Z,2.40
2019-02-24T15:34:29.657Z,2.73
2019-02-24T15:36:56.646Z,2.47
2019-02-24T15:39:23.710Z,2.10
2019-02-24T15:41:50.585Z,2.20
2019-02-24T15:44:17.292Z,2.67
2019-02-24T15:46:45.325Z,2.67
2019-02-24T15:49:13.036Z,2.93
2019-02-24T15:51:39.931Z,2.40
2019-02-24T15:54:06.847Z,2.73
2019-02-24T15:56:33.524Z,2.27
2019-02-24T15:59:00.320Z,2.60
2019-02-24T16:01:27.100Z,2.17
2019-02-24T16:03:53.965Z,2.63
2019-02-24T16:06:20.559Z,2.67
2019-02-24T16:08:47.370Z,2.27
2019-02-24T16:11:14.248Z,2.17
2019-02-24T16:13:42.043Z,2.77
2019-02-24T16:16:08.716Z,2.23
2019-02-24T16:18:35.502Z,2.30
2019-02-24T16:21:02.197Z,2.30
2019-02-24T16:23:28.907Z,2.43
2019-02-24T16:25:57.269Z,2.90
2019-02-24T16:28:23.946Z,2.27
2019-02-24T16:30:50.711Z,2.47
2019-02-24T16:33:17.492Z,2.57
2019-02-24T16:35:44.405Z,2.60
2019-02-24T16:38:11.092Z,2.97
2019-02-24T16:40:41.107Z,3.03
2019-02-24T16:43:07.840Z,2.53
2019-02-24T16:45:34.659Z,2.40
2019-02-24T16:48:01.552Z,2.07
2019-02-24T16:50:28.417Z,2.50
2019-02-24T16:52:55.196Z,2.30
2019-02-24T16:55:22.141Z,2.40
2019-02-24T16:57:50.107Z,2.40
2019-02-24T17:00:17.949Z,2.83
2019-02-24T17:02:51.049Z,2.67
2019-02-24T17:05:17.940Z,3.17
2019-02-24T17:07:44.792Z,2.53
2019-02-24T17:10:12.500Z,2.40
2019-02-24T17:12:39.373Z,2.33
2019-02-24T17:15:07.309Z,1.80
2019-02-24T17:17:34.000Z,2.33
2019-02-24T17:20:01.879Z,1.97
2019-02-24T17:22:28.806Z,3.10
2019-02-24T17:24:55.635Z,2.57
2019-02-24T17:27:22.391Z,2.13
2019-02-24T17:29:49.132Z,2.10
2019-02-24T17:32:15.951Z,1.97
2019-02-24T17:34:42.650Z,2.97
2019-02-24T17:37:09.570Z,2.67
2019-02-24T17:39:36.369Z,2.27
2019-02-24T17:42:03.110Z,2.23
2019-02-24T17:44:31.842Z,2.37
2019-02-24T17:46:58.651Z,2.00
2019-02-24T17:49:25.540Z,2.53
2019-02-24T17:51:53.322Z,1.97
2019-02-24T17:54:20.367Z,2.43
2019-02-24T17:56:47.240Z,2.27
2019-02-24T17:59:13.911Z,2.33
2019-02-24T18:01:40.750Z,2.47
2019-02-24T18:04:07.414Z,2.20
2019-02-24T18:06:34.195Z,2.77
2019-02-24T18:09:00.995Z,2.03
2019-02-24T18:11:27.745Z,2.63
2019-02-24T18:13:54.593Z,1.87
2019-02-24T18:16:21.474Z,2.93
2019-02-24T18:18:48.284Z,2.90
2019-02-24T18:21:15.105Z,2.27
2019-02-24T18:23:42.175Z,2.93
2019-02-24T18:26:10.024Z,2.87
2019-02-24T18:28:36.723Z,2.87
2019-02-24T18:31:03.831Z,2.47
2019-02-24T18:33:30.634Z,2.10
2019-02-24T18:35:57.485Z,2.50
2019-02-24T18:38:24.389Z,2.40
2019-02-24T18:40:51.066Z,2.70
2019-02-24T18:43:17.863Z,2.83
2019-02-24T18:45:44.635Z,2.90
2019-02-24T18:48:11.265Z,2.40
2019-02-24T18:50:37.990Z,2.37
2019-02-24T18:53:06.399Z,2.80
2019-02-24T18:55:33.354Z,2.83
2019-02-24T18:58:00.150Z,2.37
2019-02-24T19:05:17.258Z,2.60
2019-02-24T19:07:43.935Z,2.97
2019-02-24T19:10:12.595Z,3.27
2019-02-24T19:12:40.476Z,2.50
2019-02-24T19:15:09.157Z,4.07
2019-02-24T19:17:36.205Z,2.70
2019-02-24T19:20:03.629Z,3.30
2019-02-24T19:22:30.396Z,3.07
2019-02-24T19:24:57.291Z,2.37
2019-02-24T19:27:24.256Z,2.83
2019-02-24T19:29:51.046Z,3.00
2019-02-24T19:32:17.776Z,2.80
2019-02-24T19:34:44.493Z,3.37
2019-02-24T19:37:11.175Z,3.83
2019-02-24T19:39:37.868Z,3.97
2019-02-24T19:42:04.692Z,2.93
2019-02-24T19:44:31.523Z,3.23
2019-02-24T19:46:58.388Z,3.47
2019-02-24T19:49:25.242Z,3.70
2019-02-24T19:51:51.937Z,2.80
2019-02-24T19:54:18.651Z,2.43
2019-02-24T19:56:45.513Z,3.37
2019-02-24T19:59:12.324Z,3.03
2019-02-24T20:01:39.043Z,3.40
2019-02-24T20:04:05.880Z,3.50
2019-02-24T20:06:32.794Z,2.77
2019-02-24T20:08:59.486Z,3.40
2019-02-24T20:11:26.237Z,3.07
2019-02-24T20:13:53.018Z,2.77
2019-02-24T20:16:19.833Z,2.93
2019-02-24T20:18:46.769Z,2.43
2019-02-24T20:21:13.446Z,3.20
2019-02-24T20:23:40.097Z,3.83
2019-02-24T20:26:06.773Z,3.33
2019-02-24T20:28:33.539Z,3.83
2019-02-24T20:31:00.287Z,3.77
2019-02-24T20:33:26.937Z,3.03
2019-02-24T20:35:53.537Z,3.30
2019-02-24T20:38:20.259Z,3.53
2019-02-24T20:40:47.139Z,2.43
2019-02-24T20:43:14.263Z,4.63
2019-02-24T20:45:41.111Z,3.97
2019-02-24T20:48:08.162Z,3.80
2019-02-24T20:50:35.051Z,2.90
2019-02-24T20:53:01.873Z,4.23
2019-02-24T20:55:28.563Z,4.00
2019-02-24T20:57:56.431Z,5.00
2019-02-24T21:00:25.775Z,3.90
2019-02-24T21:02:52.643Z,3.77
2019-02-24T21:05:19.515Z,4.40
2019-02-24T21:07:46.226Z,3.90
2019-02-24T21:10:13.281Z,4.30
2019-02-24T21:12:41.143Z,4.37
2019-02-24T21:15:08.957Z,4.43
2019-02-24T21:17:36.672Z,3.37
2019-02-24T21:20:04.648Z,3.50
2019-02-24T21:22:31.519Z,3.70
2019-02-24T21:24:58.307Z,4.33
2019-02-24T21:27:25.014Z,4.73
2019-02-24T21:29:51.913Z,3.80
2019-02-24T21:32:18.821Z,3.93
2019-02-24T21:34:46.549Z,3.77
2019-02-24T21:37:13.547Z,3.53
2019-02-24T21:39:40.379Z,4.23
2019-02-24T21:42:08.113Z,3.40
2019-02-24T21:44:35.174Z,4.30
2019-02-24T21:47:01.949Z,4.30
2019-02-24T21:49:28.888Z,3.20
2019-02-24T21:51:55.723Z,3.70
2019-02-24T21:54:22.507Z,3.20
2019-02-24T21:56:51.749Z,3.60
2019-02-24T21:59:20.613Z,4.33
2019-02-24T22:01:47.994Z,3.50
2019-02-24T22:04:14.824Z,4.90
2019-02-24T22:06:41.978Z,3.53
2019-02-24T22:09:09.723Z,3.73
2019-02-24T22:11:36.435Z,4.60
2019-02-24T22:14:03.581Z,3.77
2019-02-24T22:16:30.389Z,3.73
2019-02-24T22:18:57.244Z,5.13
2019-02-24T22:21:24.079Z,3.77
2019-02-24T22:23:51.858Z,3.40
2019-02-24T22:26:18.700Z,3.07
2019-02-24T22:28:45.561Z,3.83
2019-02-24T22:31:12.387Z,3.87
2019-02-24T22:33:39.126Z,3.83
2019-02-24T22:36:06.942Z,3.40
2019-02-24T22:38:34.690Z,4.20
2019-02-24T22:41:01.452Z,3.90
2019-02-24T22:43:28.098Z,3.67
2019-02-24T22:45:54.924Z,3.50
2019-02-24T22:48:21.760Z,2.83
2019-02-24T22:50:48.513Z,3.17
2019-02-24T22:53:15.302Z,3.43
2019-02-24T22:55:41.996Z,3.47
2019-02-24T22:58:08.920Z,3.27
2019-02-24T23:00:53.037Z,2.73
2019-02-24T23:03:19.836Z,2.37
2019-02-24T23:05:46.738Z,2.53
2019-02-24T23:08:13.415Z,3.07
2019-02-24T23:10:40.225Z,2.90
2019-02-24T23:13:07.001Z,2.53
2019-02-24T23:15:33.834Z,2.70
2019-02-24T23:18:00.506Z,3.40
2019-02-24T23:20:27.163Z,3.77
2019-02-24T23:22:53.994Z,4.00
2019-02-24T23:25:20.661Z,3.53
2019-02-24T23:27:47.313Z,3.33
2019-02-24T23:30:14.167Z,3.63
2019-02-24T23:32:40.998Z,3.27
2019-02-24T23:35:07.773Z,3.93
2019-02-24T23:37:34.427Z,3.43
2019-02-24T23:40:01.126Z,3.97
2019-02-24T23:42:27.855Z,3.80
2019-02-24T23:44:54.511Z,3.90
2019-02-24T23:47:21.187Z,2.97
2019-02-24T23:49:48.004Z,3.07
2019-02-24T23:52:14.674Z,2.33
2019-02-24T23:54:41.624Z,3.23
2019-02-24T23:57:08.291Z,3.73
2019-02-24T23:59:35.089Z,2.33
